Time;durP1;ratioP1;P1;durP2;ratioP2;P2;SDS_P1;SDS_P2;PMS_P1;PMS_P2;Temp;Humidity;BMP_temperature;BMP_pressure;BME280_temperature;BME280_humidity;BME280_pressure;Samples;Min_cycle;Max_cycle;Signal;HPM_P1;HPM_P2
2022/03/21 00:01:00;;;;;;;105.55;49.92;;;;;;;;;;4994222;28;20537;-54
2022/03/21 00:03:31;;;;;;;129.98;59.00;;;;;;;;;;4994223;28;20526;-53
2022/03/21 00:06:00;;;;;;;127.60;58.97;;;;;;;;;;4994028;28;20019;-53
2022/03/21 00:08:27;;;;;;;120.55;55.30;;;;;;;;;;4994080;28;20089;-53
2022/03/21 00:10:54;;;;;;;102.93;50.58;;;;;;;;;;4993710;28;20034;-53
2022/03/21 00:13:20;;;;;;;107.88;50.72;;;;;;;;;;4994375;28;20022;-53
2022/03/21 00:15:47;;;;;;;118.60;50.92;;;;;;;;;;4993709;28;20019;-50
2022/03/21 00:18:14;;;;;;;110.35;51.60;;;;;;;;;;4993709;28;20026;-54
2022/03/21 00:20:44;;;;;;;173.20;76.32;;;;;;;;;;4993960;28;20037;-53
2022/03/21 00:23:10;;;;;;;163.38;74.40;;;;;;;;;;4993431;28;20033;-51
2022/03/21 00:25:36;;;;;;;171.38;78.10;;;;;;;;;;4994186;28;20029;-52
2022/03/21 00:28:03;;;;;;;170.82;80.72;;;;;;;;;;4994427;28;20026;-52
2022/03/21 00:30:29;;;;;;;155.55;74.13;;;;;;;;;;4993480;28;20398;-52
2022/03/21 00:32:56;;;;;;;150.45;74.43;;;;;;;;;;4994264;28;20034;-52
2022/03/21 00:35:22;;;;;;;164.20;72.82;;;;;;;;;;4994046;28;20052;-49
2022/03/21 00:37:49;;;;;;;147.93;69.60;;;;;;;;;;4994157;28;20034;-53
2022/03/21 00:40:16;;;;;;;153.25;71.20;;;;;;;;;;4994215;28;20026;-49
2022/03/21 00:42:43;;;;;;;159.20;75.40;;;;;;;;;;4993834;28;20045;-51
2022/03/21 00:45:10;;;;;;;147.13;71.13;;;;;;;;;;4992827;28;20027;-51
2022/03/21 00:47:36;;;;;;;117.80;56.10;;;;;;;;;;4993687;28;20077;-48
2022/03/21 00:50:03;;;;;;;139.05;66.20;;;;;;;;;;4993770;28;20033;-48
2022/03/21 00:52:30;;;;;;;127.93;61.90;;;;;;;;;;4994225;28;20077;-49
2022/03/21 00:54:57;;;;;;;133.88;63.28;;;;;;;;;;4993675;28;20427;-49
2022/03/21 00:57:23;;;;;;;89.75;42.88;;;;;;;;;;4993516;28;20500;-49
2022/03/21 00:59:49;;;;;;;87.57;43.10;;;;;;;;;;4993657;28;20497;-51
2022/03/21 01:02:15;;;;;;;114.18;53.72;;;;;;;;;;4994390;28;20031;-48
2022/03/21 01:04:42;;;;;;;106.60;51.80;;;;;;;;;;4993515;28;20034;-51
2022/03/21 01:07:08;;;;;;;99.45;47.42;;;;;;;;;;4993941;28;20395;-49
2022/03/21 01:09:35;;;;;;;64.40;32.05;;;;;;;;;;4993850;28;20038;-50
2022/03/21 01:12:03;;;;;;;48.60;22.73;;;;;;;;;;4993587;28;20041;-53
2022/03/21 01:14:31;;;;;;;40.30;20.65;;;;;;;;;;4993618;28;20030;-49
2022/03/21 01:16:57;;;;;;;38.95;20.35;;;;;;;;;;4994551;28;20065;-51
2022/03/21 01:19:27;;;;;;;39.50;19.08;;;;;;;;;;4997013;28;20113;-54
2022/03/21 01:21:54;;;;;;;36.85;18.02;;;;;;;;;;4997205;28;20026;-57
2022/03/21 01:24:20;;;;;;;35.70;17.80;;;;;;;;;;4997399;28;20077;-55
2022/03/21 01:26:46;;;;;;;39.70;19.17;;;;;;;;;;4997159;28;20034;-56
2022/03/21 01:29:13;;;;;;;34.55;17.02;;;;;;;;;;4996896;28;20030;-52
2022/03/21 01:31:39;;;;;;;30.38;15.38;;;;;;;;;;4997021;28;20367;-53
2022/03/21 01:34:05;;;;;;;34.70;15.95;;;;;;;;;;4996707;28;20026;-55
2022/03/21 01:36:31;;;;;;;29.35;14.60;;;;;;;;;;4997058;28;20066;-57
2022/03/21 01:38:58;;;;;;;53.17;21.55;;;;;;;;;;4996507;28;20538;-53
2022/03/21 01:41:24;;;;;;;27.83;13.15;;;;;;;;;;4996821;28;20033;-53
2022/03/21 01:43:57;;;;;;;25.63;13.05;;;;;;;;;;4996941;28;20587;-55
2022/03/21 01:46:24;;;;;;;35.47;16.40;;;;;;;;;;4996397;28;20023;-55
2022/03/21 01:48:50;;;;;;;41.95;17.63;;;;;;;;;;4997056;28;20026;-56
2022/03/21 01:51:17;;;;;;;41.78;16.33;;;;;;;;;;4996569;28;20022;-52
2022/03/21 01:56:28;;;;;;;30.40;13.93;;;;;;;;;;4996497;28;20100;-51
2022/03/21 01:58:54;;;;;;;34.53;16.35;;;;;;;;;;4996803;28;20026;-52
2022/03/21 02:01:21;;;;;;;42.55;20.75;;;;;;;;;;4996339;28;20053;-54
2022/03/21 02:03:47;;;;;;;76.72;33.30;;;;;;;;;;4997129;28;20055;-53
2022/03/21 02:06:13;;;;;;;86.20;41.92;;;;;;;;;;4996328;28;20033;-54
2022/03/21 02:08:43;;;;;;;87.13;43.92;;;;;;;;;;4995890;28;20562;-54
2022/03/21 02:11:09;;;;;;;91.25;44.22;;;;;;;;;;4996537;28;20033;-49
2022/03/21 02:13:35;;;;;;;89.28;43.58;;;;;;;;;;4996233;28;20022;-51
2022/03/21 02:16:02;;;;;;;86.05;42.60;;;;;;;;;;4996166;28;20526;-55
2022/03/21 02:18:29;;;;;;;77.72;39.13;;;;;;;;;;4996486;28;20034;-52
2022/03/21 02:20:55;;;;;;;87.10;39.90;;;;;;;;;;4995686;28;20026;-53
2022/03/21 02:23:27;;;;;;;80.72;38.22;;;;;;;;;;4996096;28;20022;-55
2022/03/21 02:25:54;;;;;;;72.38;35.53;;;;;;;;;;4996403;28;20026;-55
2022/03/21 02:28:20;;;;;;;63.33;31.40;;;;;;;;;;4994370;28;20030;-54
2022/03/21 02:30:48;;;;;;;61.35;29.77;;;;;;;;;;4995806;28;20118;-50
2022/03/21 02:33:16;;;;;;;61.78;30.80;;;;;;;;;;4996134;28;20025;-52
2022/03/21 02:35:44;;;;;;;75.40;34.95;;;;;;;;;;4995729;28;20113;-54
2022/03/21 02:38:11;;;;;;;56.17;26.75;;;;;;;;;;4996051;28;20026;-56
2022/03/21 02:40:38;;;;;;;61.50;28.20;;;;;;;;;;4995958;28;20105;-55
2022/03/21 02:43:04;;;;;;;57.50;26.65;;;;;;;;;;4995391;28;20031;-52
2022/03/21 02:45:30;;;;;;;52.95;23.67;;;;;;;;;;4995837;28;20026;-55
2022/03/21 02:47:56;;;;;;;54.50;23.05;;;;;;;;;;4995750;28;20023;-55
2022/03/21 02:50:34;;;;;;;47.72;22.63;;;;;;;;;;4995443;28;20037;-56
2022/03/21 02:53:01;;;;;;;56.00;26.00;;;;;;;;;;4995396;28;20026;-55
2022/03/21 02:55:27;;;;;;;62.25;29.35;;;;;;;;;;4995467;28;20030;-54
2022/03/21 02:57:53;;;;;;;68.22;32.22;;;;;;;;;;4995247;28;20046;-52
2022/03/21 03:00:19;;;;;;;79.50;35.78;;;;;;;;;;4995685;28;20054;-55
2022/03/21 03:02:45;;;;;;;77.15;34.97;;;;;;;;;;4995019;28;20027;-53
2022/03/21 03:05:11;;;;;;;74.88;34.50;;;;;;;;;;4995971;28;20019;-57
2022/03/21 03:07:38;;;;;;;61.15;32.17;;;;;;;;;;4995208;28;20431;-54
2022/03/21 03:10:05;;;;;;;71.63;33.08;;;;;;;;;;4994810;28;20117;-54
2022/03/21 03:12:33;;;;;;;64.38;31.27;;;;;;;;;;4995317;28;20030;-54
2022/03/21 03:14:59;;;;;;;67.90;32.30;;;;;;;;;;4995290;28;20050;-51
2022/03/21 03:17:25;;;;;;;69.75;32.88;;;;;;;;;;4994689;28;20029;-52
2022/03/21 03:19:52;;;;;;;69.20;32.97;;;;;;;;;;4995222;28;20069;-53
2022/03/21 03:22:18;;;;;;;72.65;34.45;;;;;;;;;;4995063;28;20380;-55
2022/03/21 03:24:45;;;;;;;66.72;31.95;;;;;;;;;;4994522;28;20030;-54
2022/03/21 03:27:11;;;;;;;68.57;33.05;;;;;;;;;;4994780;28;20029;-56
2022/03/21 03:29:37;;;;;;;76.32;34.28;;;;;;;;;;4994736;28;20471;-53
2022/03/21 03:32:05;;;;;;;74.25;35.42;;;;;;;;;;4994455;28;20033;-56
2022/03/21 03:34:34;;;;;;;68.07;30.75;;;;;;;;;;4993698;28;20022;-54
2022/03/21 03:37:00;;;;;;;60.80;27.73;;;;;;;;;;4994559;28;20045;-49
2022/03/21 03:39:27;;;;;;;66.65;30.05;;;;;;;;;;4993752;28;20514;-49
2022/03/21 03:41:53;;;;;;;62.72;30.00;;;;;;;;;;4994576;28;20022;-50
2022/03/21 03:44:20;;;;;;;59.60;28.85;;;;;;;;;;4994842;28;20030;-56
2022/03/21 03:46:46;;;;;;;59.92;28.88;;;;;;;;;;4994267;28;20102;-50
2022/03/21 03:49:13;;;;;;;66.65;31.13;;;;;;;;;;4994419;28;20459;-50
2022/03/21 03:51:39;;;;;;;62.80;30.30;;;;;;;;;;4994407;28;20034;-51
2022/03/21 03:54:05;;;;;;;41.90;19.42;;;;;;;;;;4994411;28;20026;-51
2022/03/21 03:56:31;;;;;;;44.53;20.17;;;;;;;;;;4994290;28;20048;-50
2022/03/21 03:58:57;;;;;;;58.67;26.48;;;;;;;;;;4994202;28;20022;-50
2022/03/21 04:01:23;;;;;;;62.92;27.67;;;;;;;;;;4994784;28;20022;-49
2022/03/21 04:03:50;;;;;;;61.88;27.25;;;;;;;;;;4994541;28;20018;-52
2022/03/21 04:06:23;;;;;;;62.97;28.80;;;;;;;;;;4993980;28;20057;-52
2022/03/21 04:08:50;;;;;;;55.65;25.23;;;;;;;;;;4994321;28;20053;-50
2022/03/21 04:11:17;;;;;;;47.03;21.73;;;;;;;;;;4993134;28;20045;-50
2022/03/21 04:13:43;;;;;;;57.47;25.13;;;;;;;;;;4993999;28;20037;-53
2022/03/21 04:16:09;;;;;;;51.97;25.65;;;;;;;;;;4994368;28;20019;-56
2022/03/21 04:18:36;;;;;;;64.32;27.75;;;;;;;;;;4994337;28;20062;-53
2022/03/21 04:21:02;;;;;;;56.83;27.40;;;;;;;;;;4994066;28;20041;-52
2022/03/21 04:23:28;;;;;;;58.72;27.00;;;;;;;;;;4994325;28;20026;-54
2022/03/21 04:25:54;;;;;;;64.32;29.00;;;;;;;;;;4993775;28;20031;-51
2022/03/21 04:28:21;;;;;;;60.92;30.75;;;;;;;;;;4993614;28;20041;-53
2022/03/21 04:30:47;;;;;;;71.65;33.42;;;;;;;;;;4994365;28;20022;-55
2022/03/21 04:33:13;;;;;;;80.57;36.33;;;;;;;;;;4993989;28;20030;-53
2022/03/21 04:35:40;;;;;;;93.90;42.58;;;;;;;;;;4993861;28;20034;-52
2022/03/21 04:38:13;;;;;;;95.78;42.78;;;;;;;;;;4993935;28;20029;-51
2022/03/21 04:40:57;;;;;;;99.53;45.33;;;;;;;;;;4993505;28;20037;-52
2022/03/21 04:43:23;;;;;;;102.80;47.25;;;;;;;;;;4994222;28;20037;-55
2022/03/21 04:45:49;;;;;;;93.05;45.20;;;;;;;;;;4994219;28;20023;-53
2022/03/21 04:48:16;;;;;;;85.65;42.70;;;;;;;;;;4993469;28;20025;-51
2022/03/21 04:50:43;;;;;;;88.85;40.30;;;;;;;;;;4993804;28;20069;-48
2022/03/21 04:53:10;;;;;;;88.57;39.00;;;;;;;;;;4995390;28;20026;-52
2022/03/21 04:55:37;;;;;;;68.18;30.80;;;;;;;;;;4995980;28;20490;-50
2022/03/21 04:58:03;;;;;;;80.20;32.95;;;;;;;;;;4997496;28;20056;-48
2022/03/21 05:00:30;;;;;;;71.88;32.45;;;;;;;;;;4997338;28;20109;-49
2022/03/21 05:02:56;;;;;;;73.63;34.40;;;;;;;;;;4997407;28;20102;-52
2022/03/21 05:05:24;;;;;;;76.05;33.17;;;;;;;;;;4997766;28;20034;-49
2022/03/21 05:07:53;;;;;;;77.40;35.42;;;;;;;;;;4997601;28;20080;-52
2022/03/21 05:10:21;;;;;;;85.75;41.70;;;;;;;;;;4996761;28;20034;-50
2022/03/21 05:12:47;;;;;;;84.35;40.67;;;;;;;;;;4997377;28;20073;-56
2022/03/21 05:15:13;;;;;;;84.47;39.92;;;;;;;;;;4997243;28;20084;-55
2022/03/21 05:17:39;;;;;;;86.70;41.50;;;;;;;;;;4997242;28;20026;-55
2022/03/21 05:20:15;;;;;;;97.88;42.78;;;;;;;;;;4996969;28;20106;-51
2022/03/21 05:22:41;;;;;;;106.90;45.22;;;;;;;;;;4995795;28;20407;-50
2022/03/21 05:36:08;;;;;;;133.32;60.67;;;;;;;;;;4997251;28;20062;-52
2022/03/21 05:38:35;;;;;;;136.30;61.00;;;;;;;;;;4996613;28;20026;-53
2022/03/21 05:41:01;;;;;;;127.40;58.85;;;;;;;;;;4997112;28;20468;-54
2022/03/21 05:43:33;;;;;;;70.03;31.10;;;;;;;;;;4996767;28;20464;-53
2022/03/21 05:46:01;;;;;;;48.03;24.23;;;;;;;;;;4997349;28;20069;-59
2022/03/21 05:51:15;;;;;;;48.03;23.17;;;;;;;;;;4996612;28;20410;-53
2022/03/21 05:53:42;;;;;;;47.17;23.77;;;;;;;;;;4996936;28;20026;-52
2022/03/21 05:56:08;;;;;;;69.25;32.17;;;;;;;;;;4996571;28;20361;-52
2022/03/21 05:58:35;;;;;;;50.45;25.17;;;;;;;;;;4996603;28;20031;-53
2022/03/21 06:01:01;;;;;;;46.45;23.85;;;;;;;;;;4996758;28;20037;-53
2022/03/21 06:03:27;;;;;;;47.15;23.92;;;;;;;;;;4996190;28;20018;-54
2022/03/21 06:05:55;;;;;;;49.92;24.70;;;;;;;;;;4996351;28;20019;-52
2022/03/21 06:08:22;;;;;;;54.25;25.33;;;;;;;;;;4996676;28;20054;-51
2022/03/21 06:10:48;;;;;;;44.65;24.15;;;;;;;;;;4996619;28;20030;-51
2022/03/21 06:13:15;;;;;;;48.67;27.52;;;;;;;;;;4995500;28;20026;-53
2022/03/21 06:15:42;;;;;;;56.05;24.35;;;;;;;;;;4995555;28;20053;-52
2022/03/21 06:18:12;;;;;;;45.58;23.63;;;;;;;;;;4994973;28;20026;-55
2022/03/21 06:20:39;;;;;;;37.30;17.97;;;;;;;;;;4995662;28;20031;-51
2022/03/21 06:23:05;;;;;;;47.60;24.58;;;;;;;;;;4996287;28;20081;-52
2022/03/21 06:25:32;;;;;;;46.80;23.27;;;;;;;;;;4996027;28;20101;-50
2022/03/21 06:27:59;;;;;;;64.68;26.63;;;;;;;;;;4996282;28;20062;-54
2022/03/21 06:30:25;;;;;;;44.90;23.25;;;;;;;;;;4996039;28;20113;-52
2022/03/21 06:32:53;;;;;;;52.65;26.27;;;;;;;;;;4996087;28;20027;-51
2022/03/21 06:35:19;;;;;;;61.63;28.80;;;;;;;;;;4996096;28;20030;-50
2022/03/21 06:37:46;;;;;;;62.83;30.23;;;;;;;;;;4995860;28;20025;-51
2022/03/21 06:40:12;;;;;;;65.15;32.47;;;;;;;;;;4995769;28;20045;-55
2022/03/21 06:42:38;;;;;;;61.95;32.63;;;;;;;;;;4995714;28;20396;-56
2022/03/21 06:45:08;;;;;;;60.47;33.65;;;;;;;;;;4996222;28;20102;-56
2022/03/21 06:47:34;;;;;;;71.20;33.58;;;;;;;;;;4995949;28;20117;-55
2022/03/21 06:50:00;;;;;;;64.35;34.33;;;;;;;;;;4995785;28;20463;-55
2022/03/21 06:52:27;;;;;;;58.10;29.98;;;;;;;;;;4995776;28;20034;-54
2022/03/21 06:54:53;;;;;;;52.70;29.92;;;;;;;;;;4995137;28;20027;-53
2022/03/21 06:57:19;;;;;;;59.67;30.67;;;;;;;;;;4995575;28;20380;-50
2022/03/21 06:59:46;;;;;;;54.53;29.90;;;;;;;;;;4996069;28;20026;-54
2022/03/21 07:02:13;;;;;;;59.03;31.00;;;;;;;;;;4995433;28;20057;-54
2022/03/21 07:04:39;;;;;;;61.30;33.53;;;;;;;;;;4996372;28;20030;-55
2022/03/21 07:07:05;;;;;;;68.00;37.78;;;;;;;;;;4995284;28;20026;-53
2022/03/21 07:09:31;;;;;;;67.90;36.55;;;;;;;;;;4992733;28;20523;-53
2022/03/21 07:11:57;;;;;;;66.63;35.60;;;;;;;;;;4992908;28;20034;-51
2022/03/21 07:14:24;;;;;;;60.70;33.45;;;;;;;;;;4992822;28;20498;-54
2022/03/21 07:16:50;;;;;;;70.43;37.47;;;;;;;;;;4994942;28;20033;-54
2022/03/21 07:19:16;;;;;;;87.35;49.08;;;;;;;;;;4995313;28;20419;-54
2022/03/21 07:21:42;;;;;;;81.32;40.53;;;;;;;;;;4995106;28;20027;-55
2022/03/21 07:24:08;;;;;;;70.50;37.42;;;;;;;;;;4995219;28;20054;-50
2022/03/21 07:26:36;;;;;;;80.47;39.60;;;;;;;;;;4994764;28;20026;-53
2022/03/21 07:29:04;;;;;;;73.32;39.42;;;;;;;;;;4994765;28;20062;-52
2022/03/21 07:31:30;;;;;;;73.38;38.20;;;;;;;;;;4995047;28;20034;-55
2022/03/21 07:33:57;;;;;;;66.80;34.45;;;;;;;;;;4994770;28;20022;-53
2022/03/21 07:36:23;;;;;;;60.65;33.90;;;;;;;;;;4994328;28;20026;-55
2022/03/21 07:38:49;;;;;;;57.00;30.60;;;;;;;;;;4994671;28;20026;-57
2022/03/21 07:41:15;;;;;;;52.30;28.58;;;;;;;;;;4994716;28;20023;-52
2022/03/21 07:43:41;;;;;;;65.72;29.73;;;;;;;;;;4994575;28;20018;-51
2022/03/21 07:48:52;;;;;;;59.03;31.58;;;;;;;;;;4994921;28;20045;-51
2022/03/21 07:51:19;;;;;;;61.63;28.75;;;;;;;;;;4994059;28;20027;-53
2022/03/21 07:53:45;;;;;;;46.05;26.10;;;;;;;;;;4995036;28;20022;-53
2022/03/21 07:56:11;;;;;;;42.83;22.10;;;;;;;;;;4994222;28;20022;-50
2022/03/21 07:58:37;;;;;;;36.28;19.70;;;;;;;;;;4994425;28;20084;-51
2022/03/21 08:01:04;;;;;;;46.80;24.10;;;;;;;;;;4994281;28;20022;-53
2022/03/21 08:03:30;;;;;;;56.67;28.52;;;;;;;;;;4993919;28;20026;-51
2022/03/21 08:05:59;;;;;;;56.33;27.80;;;;;;;;;;4994286;28;20365;-51
2022/03/21 08:08:27;;;;;;;54.13;27.08;;;;;;;;;;4994430;28;20026;-50
2022/03/21 08:10:53;;;;;;;47.33;25.92;;;;;;;;;;4993993;28;20110;-54
2022/03/21 08:13:19;;;;;;;62.10;30.65;;;;;;;;;;4994312;28;20038;-50
2022/03/21 08:15:48;;;;;;;51.72;27.73;;;;;;;;;;4994957;28;20022;-54
2022/03/21 08:18:15;;;;;;;74.97;34.65;;;;;;;;;;4994018;28;20022;-52
2022/03/21 08:20:43;;;;;;;50.70;25.58;;;;;;;;;;4993895;28;20022;-55
2022/03/21 08:23:13;;;;;;;53.08;26.00;;;;;;;;;;4993900;28;20019;-54
2022/03/21 08:25:41;;;;;;;64.32;31.98;;;;;;;;;;4993751;28;20018;-56
2022/03/21 08:28:08;;;;;;;49.80;27.40;;;;;;;;;;4993025;28;20094;-54
2022/03/21 08:30:35;;;;;;;43.17;24.05;;;;;;;;;;4994677;28;20486;-56
2022/03/21 08:33:03;;;;;;;49.40;27.55;;;;;;;;;;4993829;28;20034;-54
2022/03/21 08:35:30;;;;;;;48.35;23.92;;;;;;;;;;4992568;28;20040;-56
2022/03/21 08:37:57;;;;;;;46.88;25.75;;;;;;;;;;4992282;28;20030;-53
2022/03/21 08:40:23;;;;;;;46.85;26.02;;;;;;;;;;4992627;28;20595;-53
2022/03/21 08:42:49;;;;;;;45.35;24.73;;;;;;;;;;4993375;28;20022;-53
2022/03/21 08:45:15;;;;;;;42.30;24.33;;;;;;;;;;4993366;28;20026;-54
2022/03/21 08:47:42;;;;;;;63.80;31.50;;;;;;;;;;4993222;28;20106;-54
2022/03/21 08:50:09;;;;;;;51.88;26.05;;;;;;;;;;4994034;28;20042;-55
2022/03/21 08:52:35;;;;;;;40.13;22.55;;;;;;;;;;4993743;28;20030;-54
2022/03/21 08:55:02;;;;;;;37.05;20.60;;;;;;;;;;4994582;28;20021;-55
2022/03/21 08:57:28;;;;;;;38.25;20.30;;;;;;;;;;4994272;28;20042;-50
2022/03/21 08:59:54;;;;;;;39.33;22.63;;;;;;;;;;4993679;28;20496;-56
2022/03/21 09:02:20;;;;;;;40.45;21.20;;;;;;;;;;4993945;28;20018;-58
2022/03/21 09:04:46;;;;;;;45.60;19.92;;;;;;;;;;4993966;28;20019;-53
2022/03/21 09:07:13;;;;;;;36.83;17.77;;;;;;;;;;4993426;28;20021;-54
2022/03/21 09:09:39;;;;;;;33.47;18.25;;;;;;;;;;4993843;28;20118;-56
2022/03/21 09:12:07;;;;;;;38.00;19.13;;;;;;;;;;4993896;28;20026;-56
2022/03/21 09:14:33;;;;;;;28.48;17.35;;;;;;;;;;4993243;28;20382;-54
2022/03/21 09:17:00;;;;;;;27.52;15.98;;;;;;;;;;4993618;28;20033;-55
2022/03/21 09:19:29;;;;;;;28.63;15.70;;;;;;;;;;4993879;28;20023;-50
2022/03/21 09:21:57;;;;;;;27.63;16.05;;;;;;;;;;4993179;28;20106;-54
2022/03/21 09:24:23;;;;;;;26.52;15.02;;;;;;;;;;4994031;28;20381;-54
2022/03/21 09:26:50;;;;;;;25.60;16.15;;;;;;;;;;4993754;28;20118;-52
2022/03/21 09:29:17;;;;;;;23.20;14.38;;;;;;;;;;4993338;28;20030;-52
2022/03/21 09:31:43;;;;;;;26.08;15.38;;;;;;;;;;4993482;28;20375;-50
2022/03/21 09:34:10;;;;;;;24.42;14.23;;;;;;;;;;4993334;28;20022;-52
2022/03/21 09:36:36;;;;;;;22.95;13.27;;;;;;;;;;4991844;28;20026;-52
2022/03/21 09:39:04;;;;;;;23.42;13.40;;;;;;;;;;4996228;28;20080;-52
2022/03/21 09:41:30;;;;;;;22.30;11.85;;;;;;;;;;4996789;28;20025;-54
2022/03/21 09:44:01;;;;;;;22.75;13.00;;;;;;;;;;4997067;28;20018;-53
2022/03/21 09:46:27;;;;;;;20.30;12.57;;;;;;;;;;4997648;28;20433;-49
2022/03/21 09:48:57;;;;;;;24.17;12.43;;;;;;;;;;4996526;28;20022;-50
2022/03/21 09:51:25;;;;;;;22.83;12.52;;;;;;;;;;4997510;28;20053;-52
2022/03/21 09:53:52;;;;;;;18.88;11.60;;;;;;;;;;4996534;28;20022;-53
2022/03/21 09:56:18;;;;;;;19.10;11.55;;;;;;;;;;4996223;28;20103;-52
2022/03/21 09:58:45;;;;;;;16.33;10.27;;;;;;;;;;4996602;28;20027;-53
2022/03/21 10:01:12;;;;;;;18.88;9.23;;;;;;;;;;4996717;28;20050;-52
2022/03/21 10:03:42;;;;;;;15.80;9.02;;;;;;;;;;4996275;28;20026;-51
2022/03/21 10:06:28;;;;;;;16.67;9.65;;;;;;;;;;4995473;28;20184;-49
2022/03/21 10:09:20;;;;;;;19.85;11.18;;;;;;;;;;4997139;28;20058;-52
2022/03/21 10:11:51;;;;;;;21.23;10.98;;;;;;;;;;4993500;28;20077;-56
2022/03/21 10:14:20;;;;;;;18.85;11.95;;;;;;;;;;4996602;28;20054;-55
2022/03/21 10:16:50;;;;;;;44.10;27.90;;;;;;;;;;4996038;28;20397;-52
2022/03/21 10:19:17;;;;;;;24.50;14.57;;;;;;;;;;4996181;28;20033;-57
2022/03/21 10:21:59;;;;;;;23.73;14.45;;;;;;;;;;4996464;28;20464;-56
2022/03/21 10:24:25;;;;;;;23.92;12.73;;;;;;;;;;4996376;28;20030;-52
2022/03/21 10:26:53;;;;;;;21.45;12.90;;;;;;;;;;4996091;28;20025;-54
2022/03/21 10:29:20;;;;;;;21.92;13.23;;;;;;;;;;4995884;28;20034;-54
2022/03/21 10:31:52;;;;;;;24.55;14.00;;;;;;;;;;4995613;28;20038;-52
2022/03/21 10:34:20;;;;;;;23.35;14.50;;;;;;;;;;4996125;28;20031;-50
2022/03/21 10:37:04;;;;;;;26.00;15.90;;;;;;;;;;4995961;28;20109;-55
2022/03/21 10:39:32;;;;;;;22.55;15.63;;;;;;;;;;4995737;28;20030;-53
2022/03/21 10:42:05;;;;;;;22.05;14.32;;;;;;;;;;4996024;28;20049;-49
2022/03/21 10:44:33;;;;;;;21.42;14.35;;;;;;;;;;4995373;28;20476;-53
2022/03/21 10:47:00;;;;;;;20.98;14.18;;;;;;;;;;4995934;28;20034;-54
2022/03/21 10:49:28;;;;;;;25.73;16.33;;;;;;;;;;4995960;28;20371;-53
2022/03/21 10:51:55;;;;;;;24.45;14.27;;;;;;;;;;4996041;28;20069;-51
2022/03/21 10:54:50;;;;;;;22.60;14.18;;;;;;;;;;4995779;28;20026;-53
2022/03/21 10:57:27;;;;;;;19.45;13.63;;;;;;;;;;4990030;28;20050;-53
2022/03/21 11:00:12;;;;;;;19.83;14.40;;;;;;;;;;4995423;28;20057;-57
2022/03/21 11:02:48;;;;;;;20.30;12.30;;;;;;;;;;4996218;28;20040;-52
2022/03/21 11:05:15;;;;;;;21.67;13.82;;;;;;;;;;4995411;28;20026;-56
2022/03/21 11:07:41;;;;;;;21.15;14.55;;;;;;;;;;4995650;28;20027;-52
2022/03/21 11:10:08;;;;;;;25.45;16.55;;;;;;;;;;4995149;28;20026;-56
2022/03/21 11:12:34;;;;;;;19.35;13.82;;;;;;;;;;4995487;28;20026;-56
2022/03/21 11:15:02;;;;;;;19.10;13.63;;;;;;;;;;4995540;28;20023;-54
2022/03/21 11:17:28;;;;;;;21.55;14.02;;;;;;;;;;4995456;28;20030;-53
2022/03/21 11:19:54;;;;;;;18.00;12.55;;;;;;;;;;4994522;28;20033;-51
2022/03/21 11:22:20;;;;;;;19.20;12.25;;;;;;;;;;4994829;28;20022;-50
2022/03/21 11:24:47;;;;;;;19.35;13.23;;;;;;;;;;4995002;28;20080;-48
2022/03/21 11:27:38;;;;;;;20.00;13.15;;;;;;;;;;4994851;28;20030;-46
2022/03/21 11:30:14;;;;;;;19.15;13.40;;;;;;;;;;4995407;28;20040;-48
2022/03/21 11:32:55;;;;;;;19.73;13.35;;;;;;;;;;4996012;28;20042;-51
2022/03/21 11:35:29;;;;;;;16.43;12.43;;;;;;;;;;4994705;28;20018;-48
2022/03/21 11:37:55;;;;;;;18.42;12.43;;;;;;;;;;4995386;28;20026;-49
2022/03/21 11:40:29;;;;;;;28.63;17.10;;;;;;;;;;4994586;28;20080;-47
2022/03/21 11:43:19;;;;;;;20.67;12.70;;;;;;;;;;4994589;28;20030;-48
2022/03/21 11:45:54;;;;;;;20.25;13.13;;;;;;;;;;4985596;28;20057;-47
2022/03/21 11:48:23;;;;;;;19.95;13.27;;;;;;;;;;4994144;28;20097;-49
2022/03/21 11:50:51;;;;;;;27.45;18.08;;;;;;;;;;4994935;28;20031;-48
2022/03/21 11:53:26;;;;;;;19.15;13.45;;;;;;;;;;4995018;28;20029;-49
2022/03/21 11:55:53;;;;;;;16.88;11.50;;;;;;;;;;4994317;28;20384;-47
2022/03/21 11:58:22;;;;;;;22.95;15.15;;;;;;;;;;4994697;28;20058;-48
2022/03/21 12:01:06;;;;;;;15.75;11.93;;;;;;;;;;4994104;28;20026;-49
2022/03/21 12:03:33;;;;;;;15.10;11.52;;;;;;;;;;4993909;28;20054;-46
2022/03/21 12:06:19;;;;;;;18.35;13.40;;;;;;;;;;4994803;28;20030;-47
2022/03/21 12:08:48;;;;;;;15.88;13.23;;;;;;;;;;4994247;28;20031;-52
2022/03/21 12:11:36;;;;;;;21.90;14.15;;;;;;;;;;4994441;28;20027;-53
2022/03/21 12:14:20;;;;;;;20.60;13.70;;;;;;;;;;4994366;28;20061;-53
2022/03/21 12:16:47;;;;;;;20.88;14.00;;;;;;;;;;4993727;28;20375;-48
2022/03/21 12:19:13;;;;;;;22.50;14.15;;;;;;;;;;4994385;28;20037;-50
2022/03/21 12:21:40;;;;;;;23.23;14.80;;;;;;;;;;4994152;28;20037;-51
2022/03/21 12:24:12;;;;;;;20.60;14.45;;;;;;;;;;4993781;28;20102;-53
2022/03/21 12:26:38;;;;;;;22.80;12.68;;;;;;;;;;4994000;28;20028;-52
2022/03/21 12:29:32;;;;;;;16.35;12.18;;;;;;;;;;4994202;28;20032;-50
2022/03/21 12:32:17;;;;;;;20.42;12.88;;;;;;;;;;4994408;28;20117;-53
2022/03/21 12:34:44;;;;;;;22.13;13.48;;;;;;;;;;4994241;28;20042;-51
2022/03/21 12:37:31;;;;;;;17.33;12.68;;;;;;;;;;4993808;28;20023;-47
2022/03/21 12:39:58;;;;;;;17.65;11.82;;;;;;;;;;4984031;28;20510;-48
2022/03/21 12:42:28;;;;;;;17.33;11.90;;;;;;;;;;4993725;28;20472;-53
2022/03/21 12:44:54;;;;;;;19.30;11.43;;;;;;;;;;4993814;28;20022;-49
2022/03/21 12:47:21;;;;;;;16.02;11.57;;;;;;;;;;4993891;28;20081;-51
2022/03/21 12:49:51;;;;;;;17.33;11.73;;;;;;;;;;4993999;28;20454;-51
2022/03/21 12:52:31;;;;;;;21.40;13.43;;;;;;;;;;4993805;28;20031;-50
2022/03/21 12:54:58;;;;;;;17.07;13.43;;;;;;;;;;4994108;28;20033;-53
2022/03/21 12:57:24;;;;;;;19.80;12.65;;;;;;;;;;4993556;28;20271;-53
2022/03/21 12:59:50;;;;;;;17.70;12.40;;;;;;;;;;4994794;28;20030;-51
2022/03/21 13:02:26;;;;;;;20.50;14.40;;;;;;;;;;4993659;28;20379;-52
2022/03/21 13:10:33;;;;;;;18.95;11.88;;;;;;;;;;4993447;28;20065;-49
2022/03/21 13:13:06;;;;;;;16.20;11.15;;;;;;;;;;4994217;28;20088;-58
2022/03/21 13:15:35;;;;;;;16.30;12.32;;;;;;;;;;4996433;28;20034;-53
2022/03/21 13:18:03;;;;;;;21.83;13.52;;;;;;;;;;4995503;28;20049;-52
2022/03/21 13:20:43;;;;;;;21.27;14.98;;;;;;;;;;4995876;28;20041;-49
2022/03/21 13:23:11;;;;;;;21.05;16.48;;;;;;;;;;4997054;28;20026;-51
2022/03/21 13:25:38;;;;;;;17.20;12.93;;;;;;;;;;4996829;28;20030;-55
2022/03/21 13:28:21;;;;;;;15.23;11.70;;;;;;;;;;4996815;28;20026;-52
2022/03/21 13:31:17;;;;;;;28.98;22.35;;;;;;;;;;4997126;28;20113;-55
2022/03/21 13:33:54;;;;;;;18.23;13.30;;;;;;;;;;4995753;28;20022;-52
2022/03/21 13:36:24;;;;;;;15.90;11.75;;;;;;;;;;4997515;28;20026;-51
2022/03/21 13:39:09;;;;;;;18.33;12.38;;;;;;;;;;4993968;28;20538;-53
2022/03/21 13:41:51;;;;;;;19.73;14.55;;;;;;;;;;4994840;28;20022;-50
2022/03/21 13:44:17;;;;;;;16.35;12.23;;;;;;;;;;4993316;28;20116;-52
2022/03/21 13:47:00;;;;;;;17.83;11.32;;;;;;;;;;4994638;28;20434;-52
2022/03/21 13:49:45;;;;;;;14.20;11.13;;;;;;;;;;4996874;28;20022;-54
2022/03/21 13:52:12;;;;;;;44.33;28.55;;;;;;;;;;4997223;28;20080;-49
2022/03/21 13:54:48;;;;;;;16.88;11.32;;;;;;;;;;4995133;28;20030;-56
2022/03/21 13:57:14;;;;;;;14.60;10.43;;;;;;;;;;4995493;28;20042;-49
2022/03/21 13:59:41;;;;;;;20.30;13.57;;;;;;;;;;4995552;28;20037;-58
2022/03/21 14:02:09;;;;;;;34.35;19.80;;;;;;;;;;4996171;28;20037;-53
2022/03/21 14:04:37;;;;;;;15.73;11.02;;;;;;;;;;4996709;28;20030;-54
2022/03/21 14:07:03;;;;;;;67.88;35.20;;;;;;;;;;4996362;28;20117;-51
2022/03/21 14:09:29;;;;;;;19.00;11.23;;;;;;;;;;4996258;28;20034;-52
2022/03/21 14:12:03;;;;;;;25.65;14.68;;;;;;;;;;4996414;28;20027;-55
2022/03/21 14:14:29;;;;;;;17.63;12.50;;;;;;;;;;4996558;28;20101;-50
2022/03/21 14:16:55;;;;;;;23.85;13.15;;;;;;;;;;4996693;28;20467;-50
2022/03/21 14:19:22;;;;;;;20.33;12.07;;;;;;;;;;4996106;28;20033;-54
2022/03/21 14:21:48;;;;;;;34.50;17.85;;;;;;;;;;4996352;28;20026;-49
2022/03/21 14:24:14;;;;;;;197.65;101.82;;;;;;;;;;4995694;28;20491;-50
2022/03/21 14:26:41;;;;;;;21.38;12.60;;;;;;;;;;4996078;28;20491;-51
2022/03/21 14:29:08;;;;;;;50.30;27.13;;;;;;;;;;4995887;28;20105;-53
2022/03/21 14:31:35;;;;;;;43.58;25.05;;;;;;;;;;4996523;28;20080;-52
2022/03/21 14:34:01;;;;;;;21.58;14.88;;;;;;;;;;4995864;28;20044;-48
2022/03/21 14:36:28;;;;;;;15.93;11.27;;;;;;;;;;4995521;28;20014;-53
2022/03/21 14:38:54;;;;;;;22.23;11.80;;;;;;;;;;4995893;28;20034;-54
2022/03/21 14:41:21;;;;;;;36.47;19.90;;;;;;;;;;4996129;28;20018;-47
2022/03/21 14:43:49;;;;;;;51.03;28.05;;;;;;;;;;4995620;28;20034;-47
2022/03/21 14:46:21;;;;;;;24.55;14.50;;;;;;;;;;4995676;28;20083;-50
2022/03/21 14:48:48;;;;;;;21.85;13.43;;;;;;;;;;4994848;28;20037;-47